createdAt,value
2022-08-05T00:01:36.499Z,100.00
2022-08-05T00:04:19.404Z,100.00
2022-08-05T00:06:51.562Z,100.00
2022-08-05T00:09:19.835Z,100.00
2022-08-05T00:11:55.783Z,100.00
2022-08-05T00:14:28.967Z,100.00
2022-08-05T00:17:01.856Z,100.00
2022-08-05T00:19:33.800Z,100.00
2022-08-05T00:22:34.464Z,100.00
2022-08-05T00:25:02.010Z,100.00
2022-08-05T00:27:36.670Z,100.00
2022-08-05T00:30:13.591Z,100.00
2022-08-05T00:32:43.158Z,100.00
2022-08-05T00:35:10.548Z,100.00
2022-08-05T00:37:53.334Z,100.00
2022-08-05T00:40:27.071Z,100.00
2022-08-05T00:43:01.096Z,100.00
2022-08-05T00:45:42.812Z,100.00
2022-08-05T00:48:13.924Z,100.00
2022-08-05T00:50:45.877Z,100.00
2022-08-05T00:53:44.885Z,100.00
2022-08-05T00:56:05.506Z,100.00
2022-08-05T00:58:37.886Z,100.00
2022-08-05T01:01:10.477Z,100.00
2022-08-05T01:03:39.193Z,100.00
2022-08-05T01:06:11.251Z,100.00
2022-08-05T01:08:44.687Z,100.00
2022-08-05T01:11:33.642Z,100.00
2022-08-05T01:14:15.510Z,100.00
2022-08-05T01:16:45.874Z,100.00
2022-08-05T01:19:36.548Z,100.00
2022-08-05T01:22:24.120Z,100.00
2022-08-05T01:24:57.780Z,100.00
2022-08-05T01:27:25.324Z,100.00
2022-08-05T01:30:02.720Z,100.00
2022-08-05T01:32:35.154Z,100.00
2022-08-05T01:35:51.085Z,100.00
2022-08-05T01:38:08.536Z,100.00
2022-08-05T01:40:54.060Z,100.00
2022-08-05T01:43:24.123Z,100.00
2022-08-05T01:45:56.177Z,100.00
2022-08-05T01:48:27.861Z,100.00
2022-08-05T01:50:57.558Z,100.00
2022-08-05T01:53:57.723Z,100.00
2022-08-05T01:58:12.973Z,100.00
2022-08-05T01:59:21.594Z,100.00
2022-08-05T02:01:51.820Z,100.00
2022-08-05T02:04:24.275Z,100.00
2022-08-05T02:06:53.653Z,100.00
2022-08-05T02:09:21.095Z,100.00
2022-08-05T02:11:59.993Z,100.00
2022-08-05T02:14:34.100Z,100.00
2022-08-05T02:18:28.183Z,100.00
2022-08-05T02:20:11.633Z,100.00
2022-08-05T02:22:44.995Z,100.00
2022-08-05T02:25:19.457Z,100.00
2022-08-05T02:27:59.830Z,100.00
2022-08-05T02:30:32.531Z,100.00
2022-08-05T02:33:04.767Z,100.00
2022-08-05T02:35:37.521Z,100.00
2022-08-05T02:38:12.507Z,100.00
2022-08-05T02:40:46.967Z,100.00
2022-08-05T02:43:18.088Z,100.00
2022-08-05T02:45:52.657Z,100.00
2022-08-05T02:48:29.435Z,100.00
2022-08-05T02:51:01.349Z,100.00
2022-08-05T02:53:39.456Z,100.00
2022-08-05T02:56:15.779Z,100.00
2022-08-05T02:58:51.541Z,100.00
2022-08-05T03:01:25.183Z,100.00
2022-08-05T03:04:14.112Z,100.00
2022-08-05T03:06:53.819Z,100.00
2022-08-05T03:09:37.634Z,100.00
2022-08-05T03:12:10.646Z,100.00
2022-08-05T03:14:45.962Z,100.00
2022-08-05T03:17:13.690Z,100.00
2022-08-05T03:19:45.589Z,100.00
2022-08-05T03:22:16.832Z,100.00
2022-08-05T03:24:52.295Z,100.00
2022-08-05T03:27:21.334Z,100.00
2022-08-05T03:30:07.278Z,100.00
2022-08-05T03:32:37.910Z,100.00
2022-08-05T03:35:08.890Z,100.00
2022-08-05T03:37:44.771Z,100.00
2022-08-05T03:40:31.194Z,100.00
2022-08-05T03:42:59.635Z,100.00
2022-08-05T03:45:57.416Z,100.00
2022-08-05T03:48:30.047Z,100.00
2022-08-05T03:52:37.324Z,100.00
2022-08-05T03:55:07.010Z,100.00
2022-08-05T03:57:02.180Z,100.00
2022-08-05T03:59:55.012Z,100.00
2022-08-05T04:02:39.194Z,100.00
2022-08-05T04:05:15.402Z,100.00
2022-08-05T04:07:58.080Z,100.00
2022-08-05T04:10:37.379Z,100.00
2022-08-05T04:13:08.201Z,100.00
2022-08-05T04:16:03.263Z,100.00
2022-08-05T04:18:28.709Z,100.00
2022-08-05T04:20:58.267Z,100.00
2022-08-05T04:24:05.782Z,100.00
2022-08-05T04:26:17.470Z,100.00
2022-08-05T04:28:52.246Z,100.00
2022-08-05T04:31:20.055Z,100.00
2022-08-05T04:34:18.940Z,100.00
2022-08-05T04:36:45.136Z,100.00
2022-08-05T04:39:20.055Z,100.00
2022-08-05T04:41:48.006Z,100.00
2022-08-05T04:44:21.508Z,100.00
2022-08-05T04:47:09.805Z,100.00
2022-08-05T04:50:01.308Z,100.00
2022-08-05T04:52:29.490Z,100.00
2022-08-05T04:55:14.354Z,100.00
2022-08-05T04:57:47.546Z,100.00
2022-08-05T05:00:15.947Z,100.00
2022-08-05T05:02:44.252Z,100.00
2022-08-05T05:05:26.044Z,100.00
2022-08-05T05:08:14.453Z,100.00
2022-08-05T05:10:59.069Z,100.00
2022-08-05T05:13:32.444Z,100.00
2022-08-05T05:16:15.529Z,100.00
2022-08-05T05:19:16.407Z,100.00
2022-08-05T05:21:36.046Z,100.00
2022-08-05T05:24:09.159Z,100.00
2022-08-05T05:26:36.814Z,100.00
2022-08-05T05:29:14.243Z,100.00
2022-08-05T05:31:48.035Z,100.00
2022-08-05T05:34:15.493Z,100.00
2022-08-05T05:36:47.168Z,100.00
2022-08-05T05:39:19.120Z,100.00
2022-08-05T05:41:54.735Z,100.00
2022-08-05T05:44:37.762Z,100.00
2022-08-05T05:47:21.256Z,100.00
2022-08-05T05:49:56.462Z,100.00
2022-08-05T05:52:29.979Z,100.00
2022-08-05T05:55:00.880Z,100.00
2022-08-05T05:57:42.917Z,100.00
2022-08-05T06:00:19.199Z,100.00
2022-08-05T06:02:48.960Z,100.00
2022-08-05T06:05:20.472Z,100.00
2022-08-05T06:07:57.798Z,100.00
2022-08-05T06:10:36.499Z,100.00
2022-08-05T06:13:05.320Z,100.00
2022-08-05T06:16:29.866Z,100.00
2022-08-05T06:18:31.220Z,100.00
2022-08-05T06:21:00.555Z,100.00
2022-08-05T06:23:27.737Z,100.00
2022-08-05T06:26:21.183Z,100.00
2022-08-05T06:28:51.274Z,100.00
2022-08-05T06:31:22.372Z,100.00
2022-08-05T06:34:06.016Z,100.00
2022-08-05T06:36:53.585Z,100.00
2022-08-05T06:39:26.744Z,100.00
2022-08-05T06:42:03.863Z,100.00
2022-08-05T06:44:32.257Z,100.00
2022-08-05T06:47:02.420Z,100.00
2022-08-05T06:50:00.863Z,100.00
2022-08-05T06:52:38.083Z,100.00
2022-08-05T06:55:06.114Z,100.00
2022-08-05T06:57:57.202Z,100.00
2022-08-05T07:00:25.625Z,100.00
2022-08-05T07:02:53.589Z,100.00
2022-08-05T07:05:37.037Z,100.00
2022-08-05T07:08:05.892Z,100.00
2022-08-05T07:10:39.195Z,100.00
2022-08-05T07:13:57.033Z,100.00
2022-08-05T07:18:00.418Z,100.00
2022-08-05T07:22:28.373Z,100.00
2022-08-05T07:25:23.553Z,100.00
2022-08-05T07:27:58.047Z,100.00
2022-08-05T07:30:34.496Z,100.00
2022-08-05T07:33:09.897Z,100.00
2022-08-05T07:36:01.994Z,100.00
2022-08-05T07:38:34.149Z,100.00
2022-08-05T07:42:09.547Z,100.00
2022-08-05T07:43:55.142Z,100.00
2022-08-05T07:46:28.908Z,100.00
2022-08-05T07:49:05.440Z,100.00
2022-08-05T07:51:53.389Z,100.00
2022-08-05T07:54:27.126Z,100.00
2022-08-05T07:57:18.193Z,100.00
2022-08-05T07:59:49.473Z,100.00
2022-08-05T08:02:26.732Z,100.00
2022-08-05T08:04:59.001Z,100.00
2022-08-05T08:07:28.438Z,100.00
2022-08-05T08:09:56.742Z,100.00
2022-08-05T08:12:38.031Z,100.00
2022-08-05T08:15:16.029Z,100.00
2022-08-05T08:17:52.308Z,100.00
2022-08-05T08:20:59.908Z,100.00
2022-08-05T08:23:59.914Z,100.00
2022-08-05T08:26:00.436Z,100.00
2022-08-05T08:28:36.083Z,100.00
2022-08-05T08:31:06.611Z,100.00
2022-08-05T08:33:38.626Z,100.00
2022-08-05T08:38:57.904Z,100.00
2022-08-05T08:41:52.727Z,100.00
2022-08-05T08:45:20.238Z,100.00
2022-08-05T08:47:47.102Z,100.00
2022-08-05T08:50:29.978Z,100.00
2022-08-05T08:53:00.894Z,100.00
2022-08-05T08:56:02.521Z,100.00
2022-08-05T08:58:17.279Z,100.00
2022-08-05T09:00:48.582Z,100.00
2022-08-05T09:06:42.877Z,100.00
2022-08-05T09:09:10.154Z,100.00
2022-08-05T09:11:52.477Z,100.00
2022-08-05T09:14:58.724Z,100.00
2022-08-05T09:17:40.146Z,100.00
2022-08-05T09:20:08.540Z,100.00
2022-08-05T09:23:07.938Z,100.00
2022-08-05T09:25:59.921Z,100.00
2022-08-05T09:28:31.865Z,100.00
2022-08-05T09:31:23.294Z,100.00
2022-08-05T09:34:02.634Z,100.00
2022-08-05T09:36:55.804Z,100.00
2022-08-05T09:39:39.178Z,100.00
2022-08-05T09:42:24.177Z,100.00
2022-08-05T09:45:03.307Z,100.00
2022-08-05T09:47:55.841Z,100.00
2022-08-05T09:50:44.208Z,100.00
2022-08-05T09:53:22.994Z,100.00
2022-08-05T09:56:04.745Z,100.00
2022-08-05T09:58:42.061Z,100.00
2022-08-05T10:01:15.554Z,100.00
2022-08-05T10:04:10.722Z,100.00
2022-08-05T10:06:49.802Z,100.00
2022-08-05T10:09:29.438Z,100.00
2022-08-05T10:12:30.736Z,100.00
2022-08-05T10:15:20.137Z,100.00
2022-08-05T10:18:11.175Z,100.00
2022-08-05T10:20:44.138Z,100.00
2022-08-05T10:23:55.801Z,100.00
2022-08-05T10:26:18.689Z,99.72
2022-08-05T10:28:56.660Z,98.89
2022-08-05T10:32:51.484Z,98.52
2022-08-05T10:34:14.078Z,98.75
2022-08-05T10:36:41.943Z,97.61
2022-08-05T10:39:24.814Z,98.44
2022-08-05T10:42:32.423Z,97.66
2022-08-05T10:45:02.008Z,97.21
2022-08-05T10:48:30.084Z,96.17
2022-08-05T10:50:58.666Z,96.49
2022-08-05T10:53:45.344Z,95.49
2022-08-05T10:56:25.494Z,94.73
2022-08-05T10:58:53.513Z,93.47
2022-08-05T11:01:55.319Z,92.97
2022-08-05T11:04:26.284Z,92.66
2022-08-05T11:07:06.474Z,93.54
2022-08-05T11:09:46.436Z,92.51
2022-08-05T11:12:27.099Z,92.37
2022-08-05T11:15:59.173Z,92.58
2022-08-05T11:18:29.933Z,91.83
2022-08-05T11:21:02.589Z,91.74
2022-08-05T11:24:04.264Z,90.85
2022-08-05T11:26:28.750Z,90.52
2022-08-05T11:29:12.027Z,90.68
2022-08-05T11:31:57.714Z,90.88
2022-08-05T11:34:51.393Z,91.06
2022-08-05T11:38:36.775Z,91.14
2022-08-05T11:41:35.556Z,91.30
2022-08-05T11:44:06.656Z,92.61
2022-08-05T11:46:58.297Z,94.94
2022-08-05T11:49:37.704Z,96.25
2022-08-05T11:52:11.382Z,97.31
2022-08-05T11:54:41.360Z,98.54
2022-08-05T11:57:25.679Z,99.61
2022-08-05T11:59:59.242Z,100.00
2022-08-05T12:02:30.022Z,100.00
2022-08-05T12:05:06.730Z,100.00
2022-08-05T12:08:08.837Z,100.00
2022-08-05T12:10:38.612Z,100.00
2022-08-05T12:13:28.355Z,98.89
2022-08-05T12:16:17.827Z,97.48
2022-08-05T12:18:49.331Z,96.28
2022-08-05T12:21:26.907Z,96.53
2022-08-05T12:24:18.851Z,96.32
2022-08-05T12:26:52.654Z,94.58
2022-08-05T12:29:24.935Z,94.09
2022-08-05T12:31:57.947Z,94.37
2022-08-05T12:34:31.764Z,94.04
2022-08-05T12:37:07.456Z,93.92
2022-08-05T12:39:38.618Z,93.86
2022-08-05T12:42:18.311Z,93.95
2022-08-05T12:44:47.686Z,94.46
2022-08-05T12:47:31.569Z,94.67
2022-08-05T12:50:03.565Z,95.55
2022-08-05T12:52:41.758Z,95.81
2022-08-05T12:55:17.911Z,95.81
2022-08-05T12:58:52.569Z,96.40
2022-08-05T13:02:02.435Z,96.08
2022-08-05T13:03:32.517Z,97.14
2022-08-05T13:06:02.225Z,97.27
2022-08-05T13:08:30.354Z,96.55
2022-08-05T13:11:02.011Z,95.57
2022-08-05T13:14:04.874Z,94.99
2022-08-05T13:16:20.507Z,95.04
2022-08-05T13:18:58.732Z,95.04
2022-08-05T13:21:28.426Z,95.37
2022-08-05T13:24:10.964Z,95.60
2022-08-05T13:26:40.746Z,96.25
2022-08-05T13:29:11.758Z,98.31
2022-08-05T13:32:04.178Z,99.56
2022-08-05T13:34:32.771Z,100.00
2022-08-05T13:37:00.419Z,100.00
2022-08-05T13:40:16.501Z,100.00
2022-08-05T13:42:18.065Z,100.00
2022-08-05T13:44:46.485Z,100.00
2022-08-05T13:47:35.729Z,100.00
2022-08-05T13:50:09.585Z,100.00
2022-08-05T13:52:39.822Z,100.00
2022-08-05T13:55:09.764Z,100.00
2022-08-05T13:57:51.031Z,100.00
2022-08-05T14:00:26.824Z,100.00
2022-08-05T14:02:58.041Z,100.00
2022-08-05T14:06:04.909Z,100.00
2022-08-05T14:08:21.421Z,100.00
2022-08-05T14:10:59.738Z,100.00
2022-08-05T14:13:48.054Z,100.00
2022-08-05T14:16:16.735Z,100.00
2022-08-05T14:18:44.423Z,100.00
2022-08-05T14:22:07.751Z,100.00
2022-08-05T14:24:01.555Z,100.00
2022-08-05T14:26:38.340Z,100.00
2022-08-05T14:29:15.878Z,100.00
2022-08-05T14:32:02.857Z,100.00
2022-08-05T14:34:39.224Z,100.00
2022-08-05T14:37:08.042Z,100.00
2022-08-05T14:39:49.451Z,100.00
2022-08-05T14:42:27.218Z,100.00
2022-08-05T14:44:54.709Z,100.00
2022-08-05T14:48:03.361Z,100.00
2022-08-05T14:50:18.979Z,100.00
2022-08-05T14:52:56.790Z,100.00
2022-08-05T14:55:39.377Z,100.00
2022-08-05T14:58:12.125Z,100.00
2022-08-05T15:00:59.115Z,100.00
2022-08-05T15:03:34.158Z,100.00
2022-08-05T15:06:13.237Z,100.00
2022-08-05T15:08:59.363Z,100.00
2022-08-05T15:11:51.920Z,100.00
2022-08-05T15:14:34.657Z,100.00
2022-08-05T15:17:20.841Z,100.00
2022-08-05T15:19:59.150Z,100.00
2022-08-05T15:22:26.973Z,100.00
2022-08-05T15:24:58.327Z,100.00
2022-08-05T15:27:25.973Z,100.00
2022-08-05T15:29:56.633Z,100.00
2022-08-05T15:32:27.417Z,100.00
2022-08-05T15:34:57.142Z,100.00
2022-08-05T15:38:32.532Z,100.00
2022-08-05T15:41:01.107Z,100.00
2022-08-05T15:43:12.518Z,100.00
2022-08-05T15:46:00.500Z,100.00
2022-08-05T15:48:36.796Z,100.00
2022-08-05T15:51:05.967Z,100.00
2022-08-05T15:53:50.395Z,100.00
2022-08-05T15:56:37.515Z,100.00
2022-08-05T15:59:08.927Z,100.00
2022-08-05T16:02:09.647Z,100.00
2022-08-05T16:04:46.304Z,100.00
2022-08-05T16:07:15.626Z,100.00
2022-08-05T16:09:46.657Z,100.00
2022-08-05T16:12:19.820Z,100.00
2022-08-05T16:14:50.932Z,100.00
2022-08-05T16:17:20.299Z,100.00
2022-08-05T16:20:03.472Z,100.00
2022-08-05T16:22:37.063Z,100.00
2022-08-05T16:25:09.478Z,100.00
2022-08-05T16:28:00.093Z,100.00
2022-08-05T16:30:31.875Z,100.00
2022-08-05T16:33:00.619Z,100.00
2022-08-05T16:35:33.523Z,100.00
2022-08-05T16:38:18.516Z,100.00
2022-08-05T16:41:00.328Z,100.00
2022-08-05T16:43:31.836Z,100.00
2022-08-05T16:46:12.927Z,100.00
2022-08-05T16:48:50.681Z,100.00
2022-08-05T16:51:21.176Z,100.00
2022-08-05T16:54:02.527Z,100.00
2022-08-05T16:56:41.583Z,100.00
2022-08-05T16:59:10.166Z,100.00
2022-08-05T17:01:52.838Z,100.00
2022-08-05T17:04:26.679Z,100.00
2022-08-05T17:07:00.204Z,100.00
2022-08-05T17:09:38.965Z,100.00
2022-08-05T17:12:22.521Z,100.00
2022-08-05T17:15:08.180Z,100.00
2022-08-05T17:17:42.157Z,100.00
2022-08-05T17:20:18.408Z,100.00
2022-08-05T17:24:03.545Z,100.00
2022-08-05T17:25:58.522Z,100.00
2022-08-05T17:28:26.416Z,100.00
2022-08-05T17:30:56.338Z,100.00
2022-08-05T17:33:26.251Z,100.00
2022-08-05T17:36:33.818Z,100.00
2022-08-05T17:38:54.292Z,100.00
2022-08-05T17:42:28.553Z,100.00
2022-08-05T17:44:26.582Z,100.00
2022-08-05T17:47:02.337Z,100.00
2022-08-05T17:50:00.334Z,100.00
2022-08-05T17:52:52.517Z,100.00
2022-08-05T17:55:39.727Z,100.00
2022-08-05T17:58:14.414Z,100.00
2022-08-05T18:00:47.750Z,100.00
2022-08-05T18:03:58.575Z,100.00
2022-08-05T18:06:14.860Z,100.00
2022-08-05T18:08:52.474Z,100.00
2022-08-05T18:11:24.579Z,100.00
2022-08-05T18:14:13.630Z,100.00
2022-08-05T18:16:52.278Z,100.00
2022-08-05T18:19:29.923Z,100.00
2022-08-05T18:22:09.800Z,100.00
2022-08-05T18:24:40.112Z,100.00
2022-08-05T18:27:12.809Z,100.00
2022-08-05T18:29:53.726Z,100.00
2022-08-05T18:32:29.688Z,100.00
2022-08-05T18:34:57.967Z,100.00
2022-08-05T18:40:57.580Z,100.00
2022-08-05T18:43:16.566Z,100.00
2022-08-05T18:46:13.828Z,100.00
2022-08-05T18:48:48.273Z,100.00
2022-08-05T18:54:37.099Z,100.00
2022-08-05T18:57:09.602Z,100.00
2022-08-05T19:00:01.729Z,100.00
2022-08-05T19:02:33.091Z,100.00
2022-08-05T19:06:05.316Z,100.00
2022-08-05T19:10:44.721Z,100.00
2022-08-05T19:13:21.576Z,100.00
2022-08-05T19:19:23.333Z,100.00
2022-08-05T19:21:53.820Z,100.00
2022-08-05T19:24:34.374Z,100.00
2022-08-05T19:27:15.052Z,100.00
2022-08-05T19:29:46.713Z,100.00
2022-08-05T19:35:05.962Z,100.00
2022-08-05T19:37:47.073Z,100.00
2022-08-05T19:40:24.197Z,100.00
2022-08-05T19:43:04.607Z,100.00
2022-08-05T19:45:36.437Z,100.00
2022-08-05T19:48:07.511Z,100.00
2022-08-05T19:50:47.133Z,100.00
2022-08-05T19:53:14.358Z,100.00
2022-08-05T19:56:15.522Z,100.00
2022-08-05T19:58:30.195Z,100.00
2022-08-05T20:00:58.226Z,100.00
2022-08-05T20:03:27.302Z,100.00
2022-08-05T20:06:15.500Z,100.00
2022-08-05T20:08:53.821Z,100.00
2022-08-05T20:11:23.698Z,100.00
2022-08-05T20:13:58.111Z,100.00
2022-08-05T20:16:26.441Z,100.00
2022-08-05T20:18:55.357Z,100.00
2022-08-05T20:21:23.108Z,100.00
2022-08-05T20:23:53.090Z,100.00
2022-08-05T20:26:23.845Z,100.00
2022-08-05T20:28:55.849Z,100.00
2022-08-05T20:31:28.570Z,100.00
2022-08-05T20:34:12.505Z,100.00
2022-08-05T20:36:43.284Z,100.00
2022-08-05T20:39:13.332Z,100.00
2022-08-05T20:41:48.793Z,100.00
2022-08-05T20:44:30.539Z,100.00
2022-08-05T20:47:00.241Z,100.00
2022-08-05T20:49:29.643Z,100.00
2022-08-05T20:52:01.812Z,100.00
2022-08-05T20:54:43.573Z,100.00
2022-08-05T20:57:25.063Z,100.00
2022-08-05T21:00:41.232Z,100.00
2022-08-05T21:03:04.595Z,100.00
2022-08-05T21:05:54.060Z,100.00
2022-08-05T21:08:32.926Z,100.00
2022-08-05T21:11:15.254Z,100.00
2022-08-05T21:14:01.030Z,100.00
2022-08-05T21:16:30.802Z,100.00
2022-08-05T21:19:00.303Z,100.00
2022-08-05T21:21:44.262Z,100.00
2022-08-05T21:24:20.482Z,100.00
2022-08-05T21:26:53.267Z,100.00
2022-08-05T21:29:31.363Z,100.00
2022-08-05T21:32:04.738Z,100.00
2022-08-05T21:34:33.127Z,100.00
2022-08-05T21:37:04.749Z,100.00
2022-08-05T21:39:34.649Z,100.00
2022-08-05T21:42:30.486Z,100.00
2022-08-05T21:44:56.939Z,100.00
2022-08-05T21:47:55.038Z,100.00
2022-08-05T21:50:19.679Z,100.00
2022-08-05T21:52:53.857Z,100.00
2022-08-05T21:56:00.821Z,100.00
2022-08-05T21:58:13.815Z,100.00
2022-08-05T22:00:51.008Z,100.00
2022-08-05T22:03:51.748Z,100.00
2022-08-05T22:06:12.012Z,100.00
2022-08-05T22:08:42.796Z,100.00
2022-08-05T22:11:15.697Z,100.00
2022-08-05T22:14:05.849Z,100.00
2022-08-05T22:16:41.786Z,100.00
2022-08-05T22:20:02.801Z,100.00
2022-08-05T22:22:08.276Z,100.00
2022-08-05T22:24:55.782Z,100.00
2022-08-05T22:28:08.498Z,100.00
2022-08-05T22:30:44.344Z,100.00
2022-08-05T22:33:58.605Z,100.00
2022-08-05T22:36:14.271Z,100.00
2022-08-05T22:38:48.245Z,100.00
2022-08-05T22:42:04.611Z,100.00
2022-08-05T22:44:14.406Z,100.00
2022-08-05T22:46:46.597Z,100.00
2022-08-05T22:50:17.787Z,100.00
2022-08-05T22:52:04.968Z,100.00
2022-08-05T22:54:36.361Z,100.00
2022-08-05T22:57:05.145Z,100.00
2022-08-05T22:59:48.449Z,100.00
2022-08-05T23:02:29.226Z,100.00
2022-08-05T23:05:04.965Z,100.00
2022-08-05T23:07:45.432Z,100.00
2022-08-05T23:10:19.520Z,100.00
2022-08-05T23:12:54.399Z,100.00
2022-08-05T23:15:29.425Z,100.00
2022-08-05T23:18:05.776Z,100.00
2022-08-05T23:20:37.566Z,100.00
2022-08-05T23:23:08.142Z,100.00
2022-08-05T23:25:52.524Z,100.00
2022-08-05T23:28:22.985Z,100.00
2022-08-05T23:30:53.361Z,100.00
2022-08-05T23:33:26.493Z,100.00
2022-08-05T23:36:13.581Z,100.00
2022-08-05T23:38:42.798Z,100.00
2022-08-05T23:41:11.126Z,100.00
2022-08-05T23:44:03.143Z,100.00
2022-08-05T23:46:37.350Z,100.00
2022-08-05T23:49:15.881Z,100.00
2022-08-05T23:52:03.270Z,100.00
2022-08-05T23:54:40.745Z,100.00
2022-08-05T23:57:33.476Z,100.00
